sensor_id;sensor_type;location;lat;lon;timestamp;pressure;altitude;pressure_sealevel;temperature;humidity
29417;BME280;28421;51.030;4.006;2022-11-27T06:02:07;102126.09;;;8.58;70.56
29417;BME280;28421;51.030;4.006;2022-11-27T06:04:33;102129.50;;;8.71;70.18
29417;BME280;28421;51.030;4.006;2022-11-27T06:06:59;102128.56;;;8.82;69.92
29417;BME280;28421;51.030;4.006;2022-11-27T06:09:24;102133.63;;;8.75;69.75
29417;BME280;28421;51.030;4.006;2022-11-27T06:11:50;102132.25;;;8.81;69.75
29417;BME280;28421;51.030;4.006;2022-11-27T06:14:15;102122.81;;;8.86;69.70
29417;BME280;28421;51.030;4.006;2022-11-27T06:16:40;102124.06;;;8.82;69.80
29417;BME280;28421;51.030;4.006;2022-11-27T06:19:06;102121.81;;;8.87;70.00
29417;BME280;28421;51.030;4.006;2022-11-27T06:21:32;102109.09;;;8.80;69.85
29417;BME280;28421;51.030;4.006;2022-11-27T06:23:57;102111.44;;;8.73;70.38
29417;BME280;28421;51.030;4.006;2022-11-27T06:26:29;102092.78;;;8.71;70.13
29417;BME280;28421;51.030;4.006;2022-11-27T06:28:55;102108.25;;;8.79;70.30
29417;BME280;28421;51.030;4.006;2022-11-27T06:31:23;102099.00;;;8.72;70.36
29417;BME280;28421;51.030;4.006;2022-11-27T06:33:50;102092.06;;;8.69;70.50
29417;BME280;28421;51.030;4.006;2022-11-27T06:36:17;102085.00;;;8.68;70.79
29417;BME280;28421;51.030;4.006;2022-11-27T06:38:43;102079.66;;;8.89;69.86
29417;BME280;28421;51.030;4.006;2022-11-27T06:41:12;102086.13;;;8.87;70.06
29417;BME280;28421;51.030;4.006;2022-11-27T06:43:38;102063.03;;;8.75;70.06
29417;BME280;28421;51.030;4.006;2022-11-27T06:46:05;102080.53;;;9.00;69.80
29417;BME280;28421;51.030;4.006;2022-11-27T06:48:31;102073.03;;;8.93;69.98
29417;BME280;28421;51.030;4.006;2022-11-27T06:51:01;102066.69;;;8.94;69.60
29417;BME280;28421;51.030;4.006;2022-11-27T06:53:27;102068.59;;;8.83;69.93
29417;BME280;28421;51.030;4.006;2022-11-27T06:55:53;102061.00;;;8.88;69.84
29417;BME280;28421;51.030;4.006;2022-11-27T06:58:19;102070.22;;;8.74;70.29
29417;BME280;28421;51.030;4.006;2022-11-27T07:00:44;102067.63;;;8.84;69.99
29417;BME280;28421;51.030;4.006;2022-11-27T07:03:09;102074.34;;;8.78;70.20
29417;BME280;28421;51.030;4.006;2022-11-27T07:05:35;102075.28;;;8.88;70.12
29417;BME280;28421;51.030;4.006;2022-11-27T07:08:01;102084.69;;;8.83;69.97
29417;BME280;28421;51.030;4.006;2022-11-27T07:10:26;102072.31;;;8.70;70.19
29417;BME280;28421;51.030;4.006;2022-11-27T07:12:52;102055.50;;;8.68;70.49
29417;BME280;28421;51.030;4.006;2022-11-27T07:15:17;102054.13;;;8.74;70.65
29417;BME280;28421;51.030;4.006;2022-11-27T07:17:42;102046.03;;;8.64;70.71
29417;BME280;28421;51.030;4.006;2022-11-27T07:20:08;102041.97;;;8.70;70.60
29417;BME280;28421;51.030;4.006;2022-11-27T07:22:34;102044.53;;;8.71;70.86
29417;BME280;28421;51.030;4.006;2022-11-27T07:24:59;102034.50;;;8.74;70.75
29417;BME280;28421;51.030;4.006;2022-11-27T07:27:24;102037.44;;;8.70;70.91
29417;BME280;28421;51.030;4.006;2022-11-27T07:29:50;102029.94;;;8.64;71.07
29417;BME280;28421;51.030;4.006;2022-11-27T07:32:16;102037.94;;;8.76;70.94
29417;BME280;28421;51.030;4.006;2022-11-27T07:34:41;102019.47;;;8.61;70.64
29417;BME280;28421;51.030;4.006;2022-11-27T07:37:07;102026.91;;;8.58;70.90
29417;BME280;28421;51.030;4.006;2022-11-27T07:39:32;102008.94;;;8.49;71.03
29417;BME280;28421;51.030;4.006;2022-11-27T07:41:57;102024.63;;;8.74;71.11
29417;BME280;28421;51.030;4.006;2022-11-27T07:44:23;102010.19;;;8.65;70.86
29417;BME280;28421;51.030;4.006;2022-11-27T07:46:48;102012.75;;;8.46;71.17
29417;BME280;28421;51.030;4.006;2022-11-27T07:49:13;102015.88;;;8.72;70.94
29417;BME280;28421;51.030;4.006;2022-11-27T07:51:39;101996.00;;;8.54;70.98
29417;BME280;28421;51.030;4.006;2022-11-27T07:54:04;101996.59;;;8.57;70.97
29417;BME280;28421;51.030;4.006;2022-11-27T07:56:29;102000.94;;;8.37;71.74
29417;BME280;28421;51.030;4.006;2022-11-27T07:58:56;102015.09;;;8.60;71.55
29417;BME280;28421;51.030;4.006;2022-11-27T08:01:22;102002.09;;;8.56;71.31
29417;BME280;28421;51.030;4.006;2022-11-27T08:03:48;102008.16;;;8.58;71.62
29417;BME280;28421;51.030;4.006;2022-11-27T08:06:22;102003.44;;;8.50;71.57
29417;BME280;28421;51.030;4.006;2022-11-27T08:08:48;102010.00;;;8.57;71.44
29417;BME280;28421;51.030;4.006;2022-11-27T08:11:25;101993.41;;;8.63;71.00
29417;BME280;28421;51.030;4.006;2022-11-27T08:13:55;101999.16;;;8.59;71.20
29417;BME280;28421;51.030;4.006;2022-11-27T08:16:20;102000.44;;;8.85;71.08
29417;BME280;28421;51.030;4.006;2022-11-27T08:18:46;101998.16;;;8.81;71.07
29417;BME280;28421;51.030;4.006;2022-11-27T08:21:11;101997.16;;;8.82;70.88
29417;BME280;28421;51.030;4.006;2022-11-27T08:23:37;101988.88;;;8.64;71.25
29417;BME280;28421;51.030;4.006;2022-11-27T08:26:09;101995.28;;;8.73;71.23
29417;BME280;28421;51.030;4.006;2022-11-27T08:28:35;101989.97;;;8.82;70.95
29417;BME280;28421;51.030;4.006;2022-11-27T08:31:02;101968.69;;;8.60;70.93
29417;BME280;28421;51.030;4.006;2022-11-27T08:33:29;101987.16;;;8.84;70.86
29417;BME280;28421;51.030;4.006;2022-11-27T08:35:55;101983.53;;;8.94;70.82
29417;BME280;28421;51.030;4.006;2022-11-27T08:38:20;101972.50;;;8.88;70.58
29417;BME280;28421;51.030;4.006;2022-11-27T08:41:02;101980.38;;;8.80;71.07
29417;BME280;28421;51.030;4.006;2022-11-27T08:43:28;101981.03;;;8.72;71.42
29417;BME280;28421;51.030;4.006;2022-11-27T08:45:54;101982.72;;;8.73;71.04
29417;BME280;28421;51.030;4.006;2022-11-27T08:48:20;101973.09;;;8.70;71.07
29417;BME280;28421;51.030;4.006;2022-11-27T08:50:47;101980.94;;;8.62;71.24
29417;BME280;28421;51.030;4.006;2022-11-27T08:53:13;101977.69;;;8.80;71.18
29417;BME280;28421;51.030;4.006;2022-11-27T08:55:39;101971.28;;;8.71;71.22
29417;BME280;28421;51.030;4.006;2022-11-27T08:58:05;101969.06;;;8.76;71.27
29417;BME280;28421;51.030;4.006;2022-11-27T09:00:31;101954.81;;;8.76;71.19
29417;BME280;28421;51.030;4.006;2022-11-27T09:02:58;101973.16;;;8.80;71.68
29417;BME280;28421;51.030;4.006;2022-11-27T09:05:24;101956.09;;;8.81;71.24
29417;BME280;28421;51.030;4.006;2022-11-27T09:07:50;101957.78;;;8.82;71.62
29417;BME280;28421;51.030;4.006;2022-11-27T09:10:15;101960.34;;;8.84;71.81
29417;BME280;28421;51.030;4.006;2022-11-27T09:12:41;101947.59;;;9.07;70.99
29417;BME280;28421;51.030;4.006;2022-11-27T09:15:09;101953.97;;;9.15;70.72
29417;BME280;28421;51.030;4.006;2022-11-27T09:17:35;101943.53;;;8.82;71.43
29417;BME280;28421;51.030;4.006;2022-11-27T09:20:00;101939.94;;;9.02;70.83
29417;BME280;28421;51.030;4.006;2022-11-27T09:22:26;101944.31;;;9.03;70.76
29417;BME280;28421;51.030;4.006;2022-11-27T09:24:51;101951.09;;;8.98;71.07
29417;BME280;28421;51.030;4.006;2022-11-27T09:27:17;101947.50;;;8.87;71.44
29417;BME280;28421;51.030;4.006;2022-11-27T09:29:42;101961.09;;;8.95;70.97
29417;BME280;28421;51.030;4.006;2022-11-27T09:32:07;101962.25;;;9.03;71.28
29417;BME280;28421;51.030;4.006;2022-11-27T09:34:33;101929.69;;;8.77;71.36
29417;BME280;28421;51.030;4.006;2022-11-27T09:36:58;101954.44;;;8.90;71.41
29417;BME280;28421;51.030;4.006;2022-11-27T09:39:23;101957.47;;;9.06;71.36
29417;BME280;28421;51.030;4.006;2022-11-27T09:41:56;101945.16;;;9.04;71.43
29417;BME280;28421;51.030;4.006;2022-11-27T09:44:33;101941.72;;;9.23;70.93
29417;BME280;28421;51.030;4.006;2022-11-27T09:47:16;101941.53;;;9.05;71.00
29417;BME280;28421;51.030;4.006;2022-11-27T09:49:56;101947.75;;;9.15;71.20
29417;BME280;28421;51.030;4.006;2022-11-27T09:52:37;101936.19;;;9.24;70.76
29417;BME280;28421;51.030;4.006;2022-11-27T09:55:23;101931.81;;;9.23;70.99
29417;BME280;28421;51.030;4.006;2022-11-27T09:57:57;101922.09;;;9.32;70.93
29417;BME280;28421;51.030;4.006;2022-11-27T10:00:25;101922.78;;;9.14;70.93
29417;BME280;28421;51.030;4.006;2022-11-27T10:02:50;101917.16;;;9.27;70.81
29417;BME280;28421;51.030;4.006;2022-11-27T10:05:24;101926.63;;;9.21;70.75
29417;BME280;28421;51.030;4.006;2022-11-27T10:16:21;101904.31;;;9.21;70.48
29417;BME280;28421;51.030;4.006;2022-11-27T10:19:07;101920.00;;;9.35;70.27
29417;BME280;28421;51.030;4.006;2022-11-27T10:21:51;101915.22;;;9.49;70.01
29417;BME280;28421;51.030;4.006;2022-11-27T10:27:13;101907.19;;;9.58;69.67
29417;BME280;28421;51.030;4.006;2022-11-27T10:29:47;101900.94;;;9.48;70.07
29417;BME280;28421;51.030;4.006;2022-11-27T10:32:18;101895.03;;;9.64;69.80
29417;BME280;28421;51.030;4.006;2022-11-27T10:35:13;101889.53;;;9.75;69.37
29417;BME280;28421;51.030;4.006;2022-11-27T10:37:55;101890.63;;;9.43;70.04
29417;BME280;28421;51.030;4.006;2022-11-27T10:40:25;101891.19;;;9.57;70.28
29417;BME280;28421;51.030;4.006;2022-11-27T10:45:30;101872.13;;;9.50;70.31
29417;BME280;28421;51.030;4.006;2022-11-27T10:48:01;101868.19;;;9.64;69.67
29417;BME280;28421;51.030;4.006;2022-11-27T10:50:27;101886.69;;;9.86;69.57
29417;BME280;28421;51.030;4.006;2022-11-27T10:52:56;101881.34;;;9.67;69.93
29417;BME280;28421;51.030;4.006;2022-11-27T10:58:32;101871.56;;;9.85;69.40
29417;BME280;28421;51.030;4.006;2022-11-27T11:01:04;101848.97;;;9.68;69.42
29417;BME280;28421;51.030;4.006;2022-11-27T11:03:31;101861.53;;;9.78;69.24
29417;BME280;28421;51.030;4.006;2022-11-27T11:05:59;101857.16;;;9.67;69.21
29417;BME280;28421;51.030;4.006;2022-11-27T11:08:25;101858.41;;;10.02;69.29
29417;BME280;28421;51.030;4.006;2022-11-27T11:10:59;101852.88;;;10.13;68.73
29417;BME280;28421;51.030;4.006;2022-11-27T11:16:25;101830.50;;;10.22;67.92
29417;BME280;28421;51.030;4.006;2022-11-27T11:18:55;101836.88;;;10.21;67.73
29417;BME280;28421;51.030;4.006;2022-11-27T11:21:31;101821.03;;;10.28;67.62
29417;BME280;28421;51.030;4.006;2022-11-27T11:24:34;101817.06;;;10.22;68.31
29417;BME280;28421;51.030;4.006;2022-11-27T11:26:55;101807.75;;;10.16;68.31
29417;BME280;28421;51.030;4.006;2022-11-27T11:32:05;101798.59;;;9.90;69.00
29417;BME280;28421;51.030;4.006;2022-11-27T11:34:32;101793.19;;;10.09;69.12
29417;BME280;28421;51.030;4.006;2022-11-27T11:37:02;101798.00;;;10.06;69.16
29417;BME280;28421;51.030;4.006;2022-11-27T11:39:30;101776.41;;;9.98;69.09
29417;BME280;28421;51.030;4.006;2022-11-27T11:41:57;101788.38;;;10.03;69.03
29417;BME280;28421;51.030;4.006;2022-11-27T11:44:35;101777.75;;;10.11;68.66
29417;BME280;28421;51.030;4.006;2022-11-27T11:47:01;101767.59;;;10.05;68.83
29417;BME280;28421;51.030;4.006;2022-11-27T11:49:28;101756.25;;;10.11;69.16
29417;BME280;28421;51.030;4.006;2022-11-27T11:54:47;101772.09;;;10.14;68.18
29417;BME280;28421;51.030;4.006;2022-11-27T12:00:45;101757.75;;;9.86;68.61
29417;BME280;28421;51.030;4.006;2022-11-27T12:03:30;101758.66;;;10.14;68.50
29417;BME280;28421;51.030;4.006;2022-11-27T12:09:02;101756.16;;;10.03;68.59
29417;BME280;28421;51.030;4.006;2022-11-27T12:11:43;101751.09;;;10.00;68.27
29417;BME280;28421;51.030;4.006;2022-11-27T12:14:19;101752.44;;;10.14;68.42
29417;BME280;28421;51.030;4.006;2022-11-27T12:20:16;101730.16;;;10.04;67.94
29417;BME280;28421;51.030;4.006;2022-11-27T12:33:19;101704.03;;;10.24;67.36
29417;BME280;28421;51.030;4.006;2022-11-27T12:43:59;101682.81;;;10.30;66.65
29417;BME280;28421;51.030;4.006;2022-11-27T12:49:45;101664.78;;;10.40;66.64
29417;BME280;28421;51.030;4.006;2022-11-27T12:52:21;101659.91;;;10.54;66.07
29417;BME280;28421;51.030;4.006;2022-11-27T12:54:59;101672.69;;;10.42;66.48
29417;BME280;28421;51.030;4.006;2022-11-27T12:57:37;101658.72;;;10.56;66.33
29417;BME280;28421;51.030;4.006;2022-11-27T13:00:12;101659.56;;;10.57;66.19
29417;BME280;28421;51.030;4.006;2022-11-27T13:02:48;101657.13;;;10.63;65.72
29417;BME280;28421;51.030;4.006;2022-11-27T13:05:23;101656.34;;;10.53;65.83
29417;BME280;28421;51.030;4.006;2022-11-27T13:08:01;101665.00;;;10.29;66.15
29417;BME280;28421;51.030;4.006;2022-11-27T13:10:35;101658.19;;;10.53;66.30
29417;BME280;28421;51.030;4.006;2022-11-27T13:13:27;101657.56;;;10.41;66.48
29417;BME280;28421;51.030;4.006;2022-11-27T13:16:00;101647.91;;;10.20;67.88
29417;BME280;28421;51.030;4.006;2022-11-27T13:18:38;101645.78;;;10.14;68.18
29417;BME280;28421;51.030;4.006;2022-11-27T13:21:15;101639.19;;;10.36;67.87
29417;BME280;28421;51.030;4.006;2022-11-27T13:23:42;101640.09;;;10.27;67.75
29417;BME280;28421;51.030;4.006;2022-11-27T13:26:16;101629.59;;;10.34;67.93
29417;BME280;28421;51.030;4.006;2022-11-27T13:28:56;101629.38;;;10.17;68.38
29417;BME280;28421;51.030;4.006;2022-11-27T13:31:30;101626.22;;;10.04;68.34
29417;BME280;28421;51.030;4.006;2022-11-27T13:34:01;101617.78;;;10.17;67.87
29417;BME280;28421;51.030;4.006;2022-11-27T13:36:37;101623.72;;;9.93;68.36
29417;BME280;28421;51.030;4.006;2022-11-27T13:39:04;101617.16;;;10.05;68.26
29417;BME280;28421;51.030;4.006;2022-11-27T13:41:33;101597.31;;;9.88;68.35
29417;BME280;28421;51.030;4.006;2022-11-27T13:44:00;101608.34;;;9.85;68.28
29417;BME280;28421;51.030;4.006;2022-11-27T13:46:28;101598.84;;;9.63;68.94
29417;BME280;28421;51.030;4.006;2022-11-27T13:48:57;101591.44;;;9.75;69.52
29417;BME280;28421;51.030;4.006;2022-11-27T13:51:36;101601.22;;;9.94;68.49
29417;BME280;28421;51.030;4.006;2022-11-27T13:54:08;101590.47;;;9.94;68.42
29417;BME280;28421;51.030;4.006;2022-11-27T13:56:34;101597.25;;;10.16;67.95
29417;BME280;28421;51.030;4.006;2022-11-27T13:59:20;101586.97;;;10.11;67.95
29417;BME280;28421;51.030;4.006;2022-11-27T14:01:57;101584.81;;;9.97;68.01
29417;BME280;28421;51.030;4.006;2022-11-27T14:04:24;101576.84;;;10.05;67.60
29417;BME280;28421;51.030;4.006;2022-11-27T14:06:53;101574.34;;;10.21;67.43
29417;BME280;28421;51.030;4.006;2022-11-27T14:09:31;101571.31;;;10.07;67.50
29417;BME280;28421;51.030;4.006;2022-11-27T14:11:57;101562.19;;;10.00;67.80
29417;BME280;28421;51.030;4.006;2022-11-27T14:14:26;101561.41;;;10.07;67.57
29417;BME280;28421;51.030;4.006;2022-11-27T14:16:55;101545.06;;;10.01;67.66
29417;BME280;28421;51.030;4.006;2022-11-27T14:19:28;101562.13;;;10.09;67.69
29417;BME280;28421;51.030;4.006;2022-11-27T14:21:55;101552.13;;;10.02;67.60
29417;BME280;28421;51.030;4.006;2022-11-27T14:24:39;101544.06;;;10.19;67.23
29417;BME280;28421;51.030;4.006;2022-11-27T14:27:18;101548.91;;;10.16;66.94
29417;BME280;28421;51.030;4.006;2022-11-27T14:29:44;101534.69;;;10.24;66.67
29417;BME280;28421;51.030;4.006;2022-11-27T14:32:12;101541.84;;;10.15;66.77
29417;BME280;28421;51.030;4.006;2022-11-27T14:34:39;101534.59;;;10.25;66.65
29417;BME280;28421;51.030;4.006;2022-11-27T14:37:04;101528.66;;;10.39;66.41
29417;BME280;28421;51.030;4.006;2022-11-27T14:39:32;101528.47;;;10.05;66.59
29417;BME280;28421;51.030;4.006;2022-11-27T14:42:03;101536.66;;;9.86;66.96
29417;BME280;28421;51.030;4.006;2022-11-27T14:44:29;101525.25;;;10.02;66.76
29417;BME280;28421;51.030;4.006;2022-11-27T14:46:56;101518.56;;;9.88;66.92
29417;BME280;28421;51.030;4.006;2022-11-27T14:49:24;101513.13;;;9.98;66.96
29417;BME280;28421;51.030;4.006;2022-11-27T14:51:50;101512.28;;;9.97;66.99
29417;BME280;28421;51.030;4.006;2022-11-27T14:54:22;101512.56;;;9.94;66.84
29417;BME280;28421;51.030;4.006;2022-11-27T14:56:50;101500.44;;;9.90;66.76
29417;BME280;28421;51.030;4.006;2022-11-27T14:59:18;101500.69;;;9.96;66.68
29417;BME280;28421;51.030;4.006;2022-11-27T15:01:55;101500.53;;;9.98;66.88
29417;BME280;28421;51.030;4.006;2022-11-27T15:04:28;101495.44;;;9.95;66.80
29417;BME280;28421;51.030;4.006;2022-11-27T15:06:57;101479.41;;;9.85;67.35
29417;BME280;28421;51.030;4.006;2022-11-27T15:09:25;101493.38;;;9.89;67.39
29417;BME280;28421;51.030;4.006;2022-11-27T15:11:54;101493.84;;;10.02;67.28
29417;BME280;28421;51.030;4.006;2022-11-27T15:14:20;101481.97;;;10.05;66.98
29417;BME280;28421;51.030;4.006;2022-11-27T15:16:49;101483.56;;;10.15;66.95
29417;BME280;28421;51.030;4.006;2022-11-27T15:19:31;101469.75;;;10.10;66.84
29417;BME280;28421;51.030;4.006;2022-11-27T15:21:59;101466.75;;;10.13;66.97
29417;BME280;28421;51.030;4.006;2022-11-27T15:24:29;101464.25;;;10.12;66.75
29417;BME280;28421;51.030;4.006;2022-11-27T15:26:54;101464.94;;;9.96;67.44
29417;BME280;28421;51.030;4.006;2022-11-27T15:29:34;101467.69;;;10.04;67.27
29417;BME280;28421;51.030;4.006;2022-11-27T15:32:01;101456.38;;;10.18;67.14
29417;BME280;28421;51.030;4.006;2022-11-27T15:34:29;101453.03;;;10.16;67.20
29417;BME280;28421;51.030;4.006;2022-11-27T15:36:56;101441.50;;;9.88;67.81
29417;BME280;28421;51.030;4.006;2022-11-27T15:41:52;101448.25;;;10.10;67.66
29417;BME280;28421;51.030;4.006;2022-11-27T15:44:19;101424.59;;;9.78;68.54
29417;BME280;28421;51.030;4.006;2022-11-27T15:46:45;101439.81;;;9.87;68.84
29417;BME280;28421;51.030;4.006;2022-11-27T15:49:12;101441.44;;;9.80;68.64
29417;BME280;28421;51.030;4.006;2022-11-27T15:51:38;101446.34;;;9.85;69.03
29417;BME280;28421;51.030;4.006;2022-11-27T15:54:04;101436.81;;;9.90;68.87
29417;BME280;28421;51.030;4.006;2022-11-27T15:56:29;101427.44;;;9.94;68.73
29417;BME280;28421;51.030;4.006;2022-11-27T15:58:55;101424.22;;;9.91;68.97
29417;BME280;28421;51.030;4.006;2022-11-27T16:01:21;101402.44;;;9.76;69.06
29417;BME280;28421;51.030;4.006;2022-11-27T16:03:46;101415.94;;;9.84;69.31
29417;BME280;28421;51.030;4.006;2022-11-27T16:06:12;101399.06;;;9.74;69.58
29417;BME280;28421;51.030;4.006;2022-11-27T16:08:37;101406.69;;;9.79;69.90
29417;BME280;28421;51.030;4.006;2022-11-27T16:11:05;101408.03;;;9.83;69.92
29417;BME280;28421;51.030;4.006;2022-11-27T16:13:31;101397.06;;;9.76;69.87
29417;BME280;28421;51.030;4.006;2022-11-27T16:16:05;101386.25;;;9.86;69.99
29417;BME280;28421;51.030;4.006;2022-11-27T16:18:31;101383.75;;;9.66;70.15
29417;BME280;28421;51.030;4.006;2022-11-27T16:21:05;101383.28;;;9.71;70.22
29417;BME280;28421;51.030;4.006;2022-11-27T16:23:34;101388.56;;;9.81;69.85
29417;BME280;28421;51.030;4.006;2022-11-27T16:26:00;101351.28;;;9.60;70.19
29417;BME280;28421;51.030;4.006;2022-11-27T16:28:27;101376.34;;;9.68;70.32
29417;BME280;28421;51.030;4.006;2022-11-27T16:30:55;101376.66;;;9.48;71.09
29417;BME280;28421;51.030;4.006;2022-11-27T16:33:23;101361.72;;;9.63;70.91
29417;BME280;28421;51.030;4.006;2022-11-27T16:35:49;101358.19;;;9.62;70.85
29417;BME280;28421;51.030;4.006;2022-11-27T16:38:15;101368.69;;;9.56;71.12
29417;BME280;28421;51.030;4.006;2022-11-27T16:40:40;101365.84;;;9.75;70.63
29417;BME280;28421;51.030;4.006;2022-11-27T16:43:06;101360.50;;;9.75;70.46
29417;BME280;28421;51.030;4.006;2022-11-27T16:45:34;101365.03;;;9.75;70.51
29417;BME280;28421;51.030;4.006;2022-11-27T16:48:00;101358.72;;;9.84;70.21
29417;BME280;28421;51.030;4.006;2022-11-27T16:50:25;101353.56;;;9.73;70.57
29417;BME280;28421;51.030;4.006;2022-11-27T16:52:52;101347.59;;;9.79;70.41
29417;BME280;28421;51.030;4.006;2022-11-27T16:55:20;101351.88;;;9.89;70.02
29417;BME280;28421;51.030;4.006;2022-11-27T16:57:45;101346.91;;;9.77;70.47
29417;BME280;28421;51.030;4.006;2022-11-27T17:00:12;101330.72;;;9.68;70.52
29417;BME280;28421;51.030;4.006;2022-11-27T17:02:38;101327.72;;;9.71;70.32
29417;BME280;28421;51.030;4.006;2022-11-27T17:05:04;101347.13;;;9.83;70.44
29417;BME280;28421;51.030;4.006;2022-11-27T17:07:30;101333.44;;;9.94;70.06
29417;BME280;28421;51.030;4.006;2022-11-27T17:09:55;101334.72;;;10.08;69.91
29417;BME280;28421;51.030;4.006;2022-11-27T17:12:21;101337.56;;;10.07;69.90
29417;BME280;28421;51.030;4.006;2022-11-27T17:14:47;101321.50;;;10.15;69.64
29417;BME280;28421;51.030;4.006;2022-11-27T17:17:13;101327.44;;;10.01;69.88
29417;BME280;28421;51.030;4.006;2022-11-27T17:19:38;101322.69;;;9.94;69.91
29417;BME280;28421;51.030;4.006;2022-11-27T17:22:04;101320.75;;;10.05;69.75
29417;BME280;28421;51.030;4.006;2022-11-27T17:24:32;101314.81;;;9.93;69.86
29417;BME280;28421;51.030;4.006;2022-11-27T17:27:01;101297.31;;;9.89;70.03
29417;BME280;28421;51.030;4.006;2022-11-27T17:29:29;101303.00;;;9.86;70.02
29417;BME280;28421;51.030;4.006;2022-11-27T17:31:56;101291.13;;;9.70;70.28
29417;BME280;28421;51.030;4.006;2022-11-27T17:34:22;101305.91;;;9.92;70.26
29417;BME280;28421;51.030;4.006;2022-11-27T17:36:48;101296.09;;;9.83;70.02
29417;BME280;28421;51.030;4.006;2022-11-27T17:39:18;101295.88;;;9.77;70.30
29417;BME280;28421;51.030;4.006;2022-11-27T17:41:43;101311.03;;;9.86;70.57
29417;BME280;28421;51.030;4.006;2022-11-27T17:44:10;101288.38;;;9.62;70.44
29417;BME280;28421;51.030;4.006;2022-11-27T17:46:36;101299.88;;;9.73;70.60
29417;BME280;28421;51.030;4.006;2022-11-27T17:49:04;101305.47;;;9.79;70.33
29417;BME280;28421;51.030;4.006;2022-11-27T17:51:33;101305.41;;;9.71;70.62
29417;BME280;28421;51.030;4.006;2022-11-27T17:54:00;101297.47;;;9.69;70.92
29417;BME280;28421;51.030;4.006;2022-11-27T17:56:29;101294.19;;;9.58;71.00
29417;BME280;28421;51.030;4.006;2022-11-27T17:58:55;101271.56;;;9.60;70.82
29417;BME280;28421;51.030;4.006;2022-11-27T18:01:25;101288.81;;;9.58;70.69
29417;BME280;28421;51.030;4.006;2022-11-27T18:03:55;101286.31;;;9.56;70.88
29417;BME280;28421;51.030;4.006;2022-11-27T18:06:22;101284.31;;;9.58;70.92
29417;BME280;28421;51.030;4.006;2022-11-27T18:08:48;101286.59;;;9.53;70.85
29417;BME280;28421;51.030;4.006;2022-11-27T18:11:19;101277.44;;;9.38;71.89
29417;BME280;28421;51.030;4.006;2022-11-27T18:13:47;101277.50;;;9.46;71.31
29417;BME280;28421;51.030;4.006;2022-11-27T18:18:40;101265.97;;;9.54;71.65
29417;BME280;28421;51.030;4.006;2022-11-27T18:21:14;101267.44;;;9.48;71.56
29417;BME280;28421;51.030;4.006;2022-11-27T18:23:40;101256.03;;;9.46;71.66
29417;BME280;28421;51.030;4.006;2022-11-27T18:26:13;101254.41;;;9.53;71.58
29417;BME280;28421;51.030;4.006;2022-11-27T18:28:39;101245.59;;;9.43;71.71
29417;BME280;28421;51.030;4.006;2022-11-27T18:31:06;101248.13;;;9.44;71.74
29417;BME280;28421;51.030;4.006;2022-11-27T18:33:33;101241.31;;;9.50;71.74
29417;BME280;28421;51.030;4.006;2022-11-27T18:35:58;101235.47;;;9.55;71.45
29417;BME280;28421;51.030;4.006;2022-11-27T18:38:24;101229.09;;;9.56;71.58
29417;BME280;28421;51.030;4.006;2022-11-27T18:40:49;101223.13;;;9.44;71.99
29417;BME280;28421;51.030;4.006;2022-11-27T18:43:15;101196.53;;;9.15;72.42
29417;BME280;28421;51.030;4.006;2022-11-27T18:45:41;101225.00;;;9.26;72.75
29417;BME280;28421;51.030;4.006;2022-11-27T18:48:07;101204.19;;;9.28;72.99
29417;BME280;28421;51.030;4.006;2022-11-27T18:50:34;101210.75;;;9.25;73.36
29417;BME280;28421;51.030;4.006;2022-11-27T18:53:01;101187.72;;;9.23;72.97
29417;BME280;28421;51.030;4.006;2022-11-27T18:55:31;101195.78;;;9.23;73.11
29417;BME280;28421;51.030;4.006;2022-11-27T18:57:57;101195.53;;;9.34;73.07
29417;BME280;28421;51.030;4.006;2022-11-27T19:00:23;101173.25;;;9.33;72.79
29417;BME280;28421;51.030;4.006;2022-11-27T19:02:48;101181.16;;;9.17;73.26
29417;BME280;28421;51.030;4.006;2022-11-27T19:05:14;101168.88;;;9.14;73.90
29417;BME280;28421;51.030;4.006;2022-11-27T19:07:39;101157.84;;;9.17;73.67
29417;BME280;28421;51.030;4.006;2022-11-27T19:10:05;101171.41;;;9.16;74.13
29417;BME280;28421;51.030;4.006;2022-11-27T19:12:31;101170.34;;;9.09;74.51
29417;BME280;28421;51.030;4.006;2022-11-27T19:14:56;101149.75;;;9.09;74.45
29417;BME280;28421;51.030;4.006;2022-11-27T19:17:22;101157.69;;;9.19;74.42
29417;BME280;28421;51.030;4.006;2022-11-27T19:19:47;101154.00;;;9.20;74.55
29417;BME280;28421;51.030;4.006;2022-11-27T19:22:13;101146.06;;;9.36;73.97
29417;BME280;28421;51.030;4.006;2022-11-27T19:24:38;101148.34;;;9.49;73.91
29417;BME280;28421;51.030;4.006;2022-11-27T19:27:04;101127.75;;;9.32;74.17
29417;BME280;28421;51.030;4.006;2022-11-27T19:29:29;101127.94;;;9.30;74.78
29417;BME280;28421;51.030;4.006;2022-11-27T19:31:55;101133.66;;;9.35;74.62
29417;BME280;28421;51.030;4.006;2022-11-27T19:34:23;101140.69;;;9.36;75.06
29417;BME280;28421;51.030;4.006;2022-11-27T19:36:49;101128.66;;;9.40;75.05
29417;BME280;28421;51.030;4.006;2022-11-27T19:39:14;101139.78;;;9.45;74.91
29417;BME280;28421;51.030;4.006;2022-11-27T19:41:41;101145.34;;;9.52;74.83
29417;BME280;28421;51.030;4.006;2022-11-27T19:44:09;101108.19;;;9.39;74.82
29417;BME280;28421;51.030;4.006;2022-11-27T19:46:36;101124.81;;;9.69;74.47
29417;BME280;28421;51.030;4.006;2022-11-27T19:49:07;101123.75;;;9.62;74.73
29417;BME280;28421;51.030;4.006;2022-11-27T19:51:35;101131.41;;;9.75;74.47
29417;BME280;28421;51.030;4.006;2022-11-27T19:54:03;101122.16;;;9.77;74.46
29417;BME280;28421;51.030;4.006;2022-11-27T19:56:31;101120.66;;;9.83;74.52
29417;BME280;28421;51.030;4.006;2022-11-27T19:59:00;101125.25;;;9.90;74.17
29417;BME280;28421;51.030;4.006;2022-11-27T20:01:26;101084.88;;;9.74;74.43
29417;BME280;28421;51.030;4.006;2022-11-27T20:03:51;101099.88;;;9.85;74.49
29417;BME280;28421;51.030;4.006;2022-11-27T20:06:19;101097.88;;;9.87;74.87
29417;BME280;28421;51.030;4.006;2022-11-27T20:08:47;101071.84;;;9.79;74.34